createdAt,value
2019-04-04T00:00:47.686Z,54.72
2019-04-04T00:01:53.432Z,54.50
2019-04-04T00:02:57.940Z,54.44
2019-04-04T00:04:02.157Z,54.21
2019-04-04T00:05:06.542Z,54.16
2019-04-04T00:06:10.462Z,54.12
2019-04-04T00:07:14.642Z,54.18
2019-04-04T00:08:18.570Z,54.26
2019-04-04T00:09:22.418Z,54.38
2019-04-04T00:10:26.769Z,54.68
2019-04-04T00:11:31.014Z,54.82
2019-04-04T00:12:35.231Z,54.67
2019-04-04T00:13:40.041Z,54.71
2019-04-04T00:14:45.631Z,54.83
2019-04-04T00:15:50.254Z,54.73
2019-04-04T00:16:54.605Z,54.78
2019-04-04T00:17:58.726Z,54.76
2019-04-04T00:19:02.886Z,54.94
2019-04-04T00:20:06.938Z,55.26
2019-04-04T00:21:11.322Z,55.51
2019-04-04T00:22:15.641Z,55.37
2019-04-04T00:23:19.804Z,55.38
2019-04-04T00:24:24.296Z,55.50
2019-04-04T00:25:28.189Z,55.44
2019-04-04T00:26:32.252Z,55.43
2019-04-04T00:27:36.085Z,55.47
2019-04-04T00:28:40.061Z,55.42
2019-04-04T00:29:43.919Z,55.41
2019-04-04T00:30:48.407Z,55.22
2019-04-04T00:31:52.887Z,55.23
2019-04-04T00:32:57.206Z,54.93
2019-04-04T00:34:01.288Z,54.55
2019-04-04T00:35:05.426Z,54.33
2019-04-04T00:36:09.839Z,54.50
2019-04-04T00:37:13.920Z,54.66
2019-04-04T00:38:17.901Z,54.94
2019-04-04T00:39:21.736Z,55.27
2019-04-04T00:40:25.627Z,55.56
2019-04-04T00:41:29.955Z,55.81
2019-04-04T00:42:34.033Z,55.96
2019-04-04T00:43:38.179Z,56.12
2019-04-04T00:44:42.268Z,56.43
2019-04-04T00:45:46.429Z,56.62
2019-04-04T00:46:50.745Z,56.69
2019-04-04T00:47:54.580Z,56.75
2019-04-04T00:48:58.413Z,56.69
2019-04-04T00:50:06.110Z,56.54
2019-04-04T00:51:08.775Z,56.53
2019-04-04T00:52:12.921Z,56.40
2019-04-04T00:53:17.353Z,56.36
2019-04-04T00:54:21.350Z,56.40
2019-04-04T00:55:25.608Z,56.37
2019-04-04T00:56:29.443Z,56.32
2019-04-04T00:57:33.764Z,56.32
2019-04-04T00:58:38.042Z,56.41
2019-04-04T00:59:42.166Z,56.37
2019-04-04T01:00:46.157Z,56.53
2019-04-04T01:01:49.990Z,56.50
2019-04-04T01:02:55.041Z,56.42
2019-04-04T01:04:00.590Z,56.33
2019-04-04T01:05:05.682Z,56.27
2019-04-04T01:06:09.590Z,56.30
2019-04-04T01:07:13.766Z,56.43
2019-04-04T01:08:17.948Z,56.60
2019-04-04T01:09:22.153Z,56.57
2019-04-04T01:10:26.487Z,56.60
2019-04-04T01:11:30.997Z,56.65
2019-04-04T01:12:35.513Z,56.65
2019-04-04T01:13:39.511Z,56.61
2019-04-04T01:14:44.190Z,56.54
2019-04-04T01:15:48.384Z,56.62
2019-04-04T01:16:52.695Z,56.66
2019-04-04T01:17:56.903Z,56.75
2019-04-04T01:19:01.134Z,56.74
2019-04-04T01:20:08.755Z,56.63
2019-04-04T01:21:12.664Z,56.67
2019-04-04T01:22:16.570Z,56.62
2019-04-04T01:23:20.844Z,56.63
2019-04-04T01:24:24.673Z,56.69
2019-04-04T01:25:31.781Z,56.69
2019-04-04T01:26:35.168Z,56.54
2019-04-04T01:27:40.173Z,56.31
2019-04-04T01:28:44.081Z,56.16
2019-04-04T01:29:48.091Z,56.02
2019-04-04T01:30:52.046Z,55.99
2019-04-04T01:31:56.851Z,56.02
2019-04-04T01:33:03.560Z,56.14
2019-04-04T01:34:06.738Z,56.16
2019-04-04T01:35:10.929Z,56.25
2019-04-04T01:36:14.836Z,56.32
2019-04-04T01:37:19.410Z,56.33
2019-04-04T01:38:24.031Z,56.26
2019-04-04T01:39:30.842Z,56.21
2019-04-04T01:40:33.845Z,56.21
2019-04-04T01:41:38.324Z,56.23
2019-04-04T01:42:42.303Z,56.24
2019-04-04T01:43:46.527Z,56.22
2019-04-04T01:44:50.429Z,56.26
2019-04-04T01:45:54.900Z,56.31
2019-04-04T01:46:58.976Z,56.32
2019-04-04T01:48:02.802Z,56.36
2019-04-04T01:49:06.700Z,56.50
2019-04-04T01:50:11.450Z,56.73
2019-04-04T01:51:16.100Z,57.00
2019-04-04T01:52:19.922Z,57.17
2019-04-04T01:53:24.070Z,57.30
2019-04-04T01:54:29.967Z,57.37
2019-04-04T01:55:34.952Z,57.08
2019-04-04T01:56:39.497Z,57.04
2019-04-04T01:57:43.649Z,57.02
2019-04-04T01:58:47.731Z,56.89
2019-04-04T01:59:51.962Z,56.83
2019-04-04T02:00:56.196Z,56.71
2019-04-04T02:02:00.022Z,56.70
2019-04-04T02:03:03.924Z,56.92
2019-04-04T02:04:07.751Z,57.16
2019-04-04T02:05:11.837Z,57.47
2019-04-04T02:06:16.161Z,57.66
2019-04-04T02:07:20.485Z,57.79
2019-04-04T02:08:24.558Z,57.93
2019-04-04T02:09:28.386Z,57.94
2019-04-04T02:10:34.507Z,58.00
2019-04-04T02:11:38.870Z,58.05
2019-04-04T02:12:43.015Z,58.09
2019-04-04T02:13:46.913Z,58.17
2019-04-04T02:14:50.995Z,58.20
2019-04-04T02:15:55.399Z,58.25
2019-04-04T02:16:59.226Z,58.25
2019-04-04T02:18:03.375Z,58.21
2019-04-04T02:19:07.779Z,58.22
2019-04-04T02:20:12.114Z,58.26
2019-04-04T02:21:16.270Z,58.27
2019-04-04T02:22:20.422Z,58.24
2019-04-04T02:23:24.659Z,58.24
2019-04-04T02:24:29.755Z,58.38
2019-04-04T02:25:34.896Z,58.43
2019-04-04T02:26:39.021Z,58.41
2019-04-04T02:27:43.596Z,58.52
2019-04-04T02:28:47.826Z,58.60
2019-04-04T02:29:51.662Z,58.69
2019-04-04T02:30:55.911Z,58.63
2019-04-04T02:32:00.813Z,58.61
2019-04-04T02:33:04.791Z,58.64
2019-04-04T02:34:08.626Z,58.71
2019-04-04T02:35:12.945Z,58.82
2019-04-04T02:36:17.508Z,58.81
2019-04-04T02:37:22.097Z,58.73
2019-04-04T02:38:27.996Z,58.66
2019-04-04T02:39:35.356Z,58.63
2019-04-04T02:40:42.019Z,58.62
2019-04-04T02:41:47.714Z,58.51
2019-04-04T02:42:54.079Z,58.38
2019-04-04T02:43:59.411Z,58.33
2019-04-04T02:45:05.282Z,58.27
2019-04-04T02:46:11.670Z,58.18
2019-04-04T02:47:17.471Z,58.22
2019-04-04T02:48:23.322Z,58.35
2019-04-04T02:49:29.226Z,58.29
2019-04-04T02:50:35.694Z,58.14
2019-04-04T02:51:41.049Z,57.97
2019-04-04T02:52:46.098Z,57.83
2019-04-04T02:53:52.892Z,57.91
2019-04-04T02:54:58.161Z,57.95
2019-04-04T02:56:03.672Z,58.19
2019-04-04T02:57:09.460Z,58.33
2019-04-04T02:58:14.992Z,58.38
2019-04-04T02:59:21.569Z,58.47
2019-04-04T03:00:26.769Z,58.47
2019-04-04T03:01:32.261Z,58.37
2019-04-04T03:02:37.279Z,58.33
2019-04-04T03:03:42.295Z,58.28
2019-04-04T03:04:47.197Z,58.23
2019-04-04T03:05:52.342Z,58.05
2019-04-04T03:06:58.593Z,58.00
2019-04-04T03:08:04.140Z,58.08
2019-04-04T03:09:10.079Z,57.97
2019-04-04T03:10:16.529Z,57.93
2019-04-04T03:11:22.166Z,57.82
2019-04-04T03:12:27.014Z,57.80
2019-04-04T03:13:32.385Z,57.79
2019-04-04T03:14:37.605Z,57.82
2019-04-04T03:15:47.406Z,57.82
2019-04-04T03:16:48.582Z,57.79
2019-04-04T03:17:53.232Z,57.75
2019-04-04T03:18:57.050Z,57.76
2019-04-04T03:20:01.337Z,57.74
2019-04-04T03:21:05.679Z,57.63
2019-04-04T03:22:10.144Z,57.54
2019-04-04T03:23:14.053Z,57.46
2019-04-04T03:24:18.559Z,57.40
2019-04-04T03:25:22.818Z,57.40
2019-04-04T03:26:27.332Z,57.39
2019-04-04T03:27:31.316Z,57.45
2019-04-04T03:28:35.296Z,57.44
2019-04-04T03:29:40.188Z,57.44
2019-04-04T03:30:52.736Z,57.49
2019-04-04T03:31:51.034Z,57.50
2019-04-04T03:32:55.650Z,57.59
2019-04-04T03:34:08.988Z,57.57
2019-04-04T03:35:06.116Z,57.55
2019-04-04T03:36:10.516Z,57.62
2019-04-04T03:37:14.984Z,57.68
2019-04-04T03:38:19.078Z,57.75
2019-04-04T03:39:23.175Z,57.72
2019-04-04T03:40:27.255Z,57.67
2019-04-04T03:41:35.403Z,57.69
2019-04-04T03:42:36.970Z,57.76
2019-04-04T03:43:41.545Z,57.78
2019-04-04T03:44:45.371Z,57.76
2019-04-04T03:45:49.591Z,57.66
2019-04-04T03:46:54.186Z,57.61
2019-04-04T03:48:00.000Z,57.59
2019-04-04T03:49:04.095Z,57.59
2019-04-04T03:50:08.158Z,57.64
2019-04-04T03:51:12.258Z,57.66
2019-04-04T03:52:16.331Z,57.63
2019-04-04T03:53:21.208Z,57.70
2019-04-04T03:54:27.135Z,57.72
2019-04-04T03:55:31.615Z,57.70
2019-04-04T03:56:39.125Z,57.63
2019-04-04T03:57:41.642Z,57.61
2019-04-04T03:58:45.544Z,57.54
2019-04-04T03:59:49.623Z,57.37
2019-04-04T04:00:53.539Z,57.33
2019-04-04T04:01:58.147Z,57.35
2019-04-04T04:03:02.155Z,57.44
2019-04-04T04:04:06.239Z,57.42
2019-04-04T04:05:25.225Z,57.49
2019-04-04T04:06:29.097Z,57.53
2019-04-04T04:07:32.920Z,57.53
2019-04-04T04:08:37.161Z,57.51
2019-04-04T04:09:41.924Z,57.42
2019-04-04T04:10:45.858Z,57.31
2019-04-04T04:11:50.023Z,57.27
2019-04-04T04:12:54.544Z,57.31
2019-04-04T04:13:59.065Z,57.41
2019-04-04T04:15:03.432Z,57.47
2019-04-04T04:16:07.397Z,57.52
2019-04-04T04:17:12.637Z,57.54
2019-04-04T04:18:20.229Z,57.53
2019-04-04T04:19:24.512Z,57.52
2019-04-04T04:20:29.286Z,57.53
2019-04-04T04:21:33.133Z,57.58
2019-04-04T04:22:37.304Z,57.54
2019-04-04T04:23:41.137Z,57.52
2019-04-04T04:24:45.717Z,57.51
2019-04-04T04:25:49.825Z,57.55
2019-04-04T04:26:54.120Z,57.65
2019-04-04T04:27:57.950Z,57.64
2019-04-04T04:29:01.881Z,57.69
2019-04-04T04:30:07.592Z,57.75
2019-04-04T04:31:15.304Z,57.73
2019-04-04T04:32:21.101Z,57.69
2019-04-04T04:33:23.824Z,57.66
2019-04-04T04:34:33.037Z,57.63
2019-04-04T04:35:34.283Z,57.62
2019-04-04T04:36:38.801Z,57.66
2019-04-04T04:37:42.922Z,57.64
2019-04-04T04:38:46.762Z,57.67
2019-04-04T04:39:50.763Z,57.65
2019-04-04T04:40:54.998Z,57.64
2019-04-04T04:41:59.459Z,57.64
2019-04-04T04:43:04.031Z,57.71
2019-04-04T04:44:07.858Z,57.75
2019-04-04T04:45:12.644Z,57.78
2019-04-04T04:46:18.064Z,57.76
2019-04-04T04:47:23.905Z,57.76
2019-04-04T04:48:30.732Z,57.79
2019-04-04T04:49:35.688Z,57.97
2019-04-04T04:50:41.005Z,58.04
2019-04-04T04:51:45.451Z,57.93
2019-04-04T04:52:49.610Z,57.92
2019-04-04T04:53:54.182Z,57.96
2019-04-04T04:54:58.089Z,58.03
2019-04-04T04:56:01.924Z,58.11
2019-04-04T04:57:05.907Z,58.12
2019-04-04T04:58:11.234Z,57.99
2019-04-04T04:59:15.671Z,57.89
2019-04-04T05:00:19.657Z,57.82
2019-04-04T05:01:23.819Z,57.77
2019-04-04T05:02:28.071Z,57.81
2019-04-04T05:03:32.611Z,57.89
2019-04-04T05:04:36.606Z,57.94
2019-04-04T05:05:40.836Z,58.11
2019-04-04T05:06:45.080Z,58.21
2019-04-04T05:07:49.351Z,58.27
2019-04-04T05:08:53.195Z,58.28
2019-04-04T05:09:57.688Z,58.24
2019-04-04T05:11:02.641Z,58.18
2019-04-04T05:12:06.635Z,58.13
2019-04-04T05:14:35.925Z,58.43
2019-04-04T05:15:40.435Z,58.31
2019-04-04T05:16:44.612Z,58.30
2019-04-04T05:17:49.072Z,58.26
2019-04-04T05:18:53.504Z,58.27
2019-04-04T05:19:57.671Z,58.19
2019-04-04T05:21:02.528Z,58.23
2019-04-04T05:22:09.155Z,58.35
2019-04-04T05:23:15.453Z,58.43
2019-04-04T05:24:19.706Z,58.44
2019-04-04T05:25:23.657Z,58.43
2019-04-04T05:26:27.825Z,58.42
2019-04-04T05:27:31.939Z,58.48
2019-04-04T05:28:36.262Z,58.40
2019-04-04T05:29:40.103Z,58.33
2019-04-04T05:30:45.087Z,58.22
2019-04-04T05:31:50.698Z,58.16
2019-04-04T05:32:56.501Z,58.15
2019-04-04T05:34:01.181Z,58.21
2019-04-04T05:35:05.795Z,58.22
2019-04-04T05:36:10.072Z,58.24
2019-04-04T05:37:13.918Z,58.23
2019-04-04T05:38:18.076Z,58.25
2019-04-04T05:39:21.998Z,58.22
2019-04-04T05:40:26.026Z,58.25
2019-04-04T05:41:30.459Z,58.31
2019-04-04T05:42:34.917Z,58.61
2019-04-04T05:43:39.100Z,58.64
2019-04-04T05:44:43.504Z,58.72
2019-04-04T05:45:48.293Z,58.98
2019-04-04T05:46:52.515Z,59.25
2019-04-04T05:47:59.529Z,60.01
2019-04-04T05:49:07.823Z,60.31
2019-04-04T05:50:11.083Z,60.04
2019-04-04T05:51:15.235Z,60.32
2019-04-04T05:52:20.055Z,60.26
2019-04-04T05:53:23.977Z,59.85
2019-04-04T05:54:27.942Z,59.92
2019-04-04T05:55:32.457Z,60.28
2019-04-04T05:56:36.294Z,60.25
2019-04-04T05:57:40.664Z,60.28
2019-04-04T05:58:44.837Z,60.04
2019-04-04T05:59:49.000Z,59.78
2019-04-04T06:00:53.216Z,59.52
2019-04-04T06:01:57.374Z,59.21
2019-04-04T06:03:01.244Z,59.21
2019-04-04T06:04:05.230Z,58.92
2019-04-04T06:05:09.463Z,58.86
2019-04-04T06:06:13.440Z,58.93
2019-04-04T06:07:17.419Z,59.08
2019-04-04T06:08:21.635Z,58.97
2019-04-04T06:09:25.566Z,58.82
2019-04-04T06:10:29.898Z,58.63
2019-04-04T06:11:33.775Z,58.48
2019-04-04T06:12:37.873Z,58.62
2019-04-04T06:13:41.704Z,58.79
2019-04-04T06:14:46.088Z,58.75
2019-04-04T06:15:50.241Z,58.66
2019-04-04T06:16:54.430Z,58.52
2019-04-04T06:17:58.272Z,58.58
2019-04-04T06:19:02.111Z,58.58
2019-04-04T06:20:07.507Z,58.53
2019-04-04T06:21:12.002Z,58.49
2019-04-04T06:22:15.841Z,58.43
2019-04-04T06:23:20.608Z,58.29
2019-04-04T06:24:25.214Z,57.92
2019-04-04T06:25:34.387Z,57.69
2019-04-04T06:26:38.206Z,57.86
2019-04-04T06:27:42.266Z,57.95
2019-04-04T06:28:46.434Z,58.05
2019-04-04T06:29:50.609Z,58.30
2019-04-04T06:30:54.945Z,58.18
2019-04-04T06:32:00.406Z,57.80
2019-04-04T06:33:05.183Z,57.62
2019-04-04T06:34:10.489Z,57.56
2019-04-04T06:35:15.439Z,57.56
2019-04-04T06:36:19.907Z,57.48
2019-04-04T06:37:24.052Z,57.40
2019-04-04T06:38:27.973Z,57.44
2019-04-04T06:39:31.875Z,57.39
2019-04-04T06:40:36.161Z,57.38
2019-04-04T06:41:40.686Z,57.39
2019-04-04T06:42:45.431Z,57.39
2019-04-04T06:43:49.677Z,57.42
2019-04-04T06:44:54.295Z,57.41
2019-04-04T06:45:58.979Z,57.38
2019-04-04T06:47:03.363Z,57.41
2019-04-04T06:48:07.438Z,57.34
2019-04-04T06:49:11.435Z,57.27
2019-04-04T06:50:15.515Z,57.26
2019-04-04T06:51:19.852Z,57.25
2019-04-04T06:52:23.699Z,57.17
2019-04-04T06:53:27.843Z,56.94
2019-04-04T06:54:31.765Z,56.99
2019-04-04T06:55:39.911Z,57.03
2019-04-04T06:56:41.887Z,56.89
2019-04-04T06:57:48.001Z,57.04
2019-04-04T06:58:52.655Z,57.32
2019-04-04T06:59:56.498Z,57.56
2019-04-04T07:01:00.895Z,57.75
2019-04-04T07:02:05.342Z,57.84
2019-04-04T07:03:09.326Z,57.80
2019-04-04T07:04:13.654Z,57.84
2019-04-04T07:05:17.736Z,57.82
2019-04-04T07:06:21.904Z,57.99
2019-04-04T07:07:26.222Z,58.07
2019-04-04T07:08:30.561Z,58.24
2019-04-04T07:09:37.177Z,58.30
2019-04-04T07:10:41.381Z,58.24
2019-04-04T07:11:45.376Z,58.15
2019-04-04T07:12:49.664Z,58.10
2019-04-04T07:13:53.507Z,58.12
2019-04-04T07:14:57.506Z,58.14
2019-04-04T07:16:07.001Z,58.04
2019-04-04T07:17:08.780Z,58.11
2019-04-04T07:18:13.256Z,58.21
2019-04-04T07:19:17.454Z,58.32
2019-04-04T07:20:21.380Z,58.36
2019-04-04T07:21:25.310Z,58.30
2019-04-04T07:22:29.305Z,58.24
2019-04-04T07:23:33.920Z,58.21
2019-04-04T07:24:38.457Z,58.01
2019-04-04T07:25:42.933Z,58.04
2019-04-04T07:26:46.793Z,58.09
2019-04-04T07:27:50.746Z,58.11
2019-04-04T07:28:54.932Z,58.05
2019-04-04T07:29:58.769Z,58.07
2019-04-04T07:31:02.634Z,58.13
2019-04-04T07:32:09.055Z,58.13
2019-04-04T07:33:13.373Z,58.17
2019-04-04T07:34:17.501Z,58.09
2019-04-04T07:35:21.338Z,58.13
2019-04-04T07:36:25.212Z,58.14
2019-04-04T07:37:29.051Z,58.03
2019-04-04T07:38:35.013Z,58.04
2019-04-04T07:39:38.951Z,57.99
2019-04-04T07:40:43.075Z,58.05
2019-04-04T07:41:47.659Z,57.90
2019-04-04T07:42:51.869Z,57.86
2019-04-04T07:43:58.515Z,57.95
2019-04-04T07:45:01.391Z,57.90
2019-04-04T07:46:16.397Z,57.81
2019-04-04T07:47:11.341Z,57.92
2019-04-04T07:48:17.638Z,57.99
2019-04-04T07:49:23.333Z,58.12
2019-04-04T07:50:27.810Z,58.01
2019-04-04T07:51:31.974Z,58.14
2019-04-04T07:52:36.174Z,58.29
2019-04-04T07:53:40.321Z,58.36
2019-04-04T07:54:44.418Z,58.43
2019-04-04T07:55:48.707Z,58.46
2019-04-04T07:56:52.723Z,58.47
2019-04-04T07:57:57.195Z,58.49
2019-04-04T07:59:01.504Z,58.59
2019-04-04T08:00:07.092Z,58.35
2019-04-04T08:01:11.658Z,58.48
2019-04-04T08:02:16.379Z,58.33
2019-04-04T08:03:20.580Z,58.26
2019-04-04T08:04:24.786Z,58.45
2019-04-04T08:05:28.633Z,58.58
2019-04-04T08:06:32.620Z,58.65
2019-04-04T08:07:37.509Z,58.67
2019-04-04T08:08:41.684Z,58.30
2019-04-04T08:09:45.771Z,58.39
2019-04-04T08:10:50.210Z,58.58
2019-04-04T08:11:54.371Z,58.65
2019-04-04T08:12:58.529Z,58.39
2019-04-04T08:14:02.805Z,58.38
2019-04-04T08:15:07.404Z,58.14
2019-04-04T08:16:11.250Z,58.42
2019-04-04T08:17:15.478Z,58.52
2019-04-04T08:18:19.382Z,58.78
2019-04-04T08:19:23.479Z,58.91
2019-04-04T08:20:27.469Z,58.77
2019-04-04T08:21:31.744Z,58.84
2019-04-04T08:22:35.583Z,58.58
2019-04-04T08:23:39.996Z,58.49
2019-04-04T08:24:44.080Z,58.44
2019-04-04T08:25:48.479Z,58.44
2019-04-04T08:26:52.816Z,58.30
2019-04-04T08:27:56.902Z,58.26
2019-04-04T08:29:01.653Z,58.02
2019-04-04T08:30:06.088Z,57.99
2019-04-04T08:31:10.817Z,58.10
2019-04-04T08:32:14.901Z,58.11
2019-04-04T08:33:19.237Z,58.03
2019-04-04T08:34:23.687Z,57.67
2019-04-04T08:35:27.832Z,57.57
2019-04-04T08:36:31.986Z,57.16
2019-04-04T08:37:36.472Z,57.12
2019-04-04T08:38:40.396Z,57.26
2019-04-04T08:39:44.548Z,57.33
2019-04-04T08:40:48.464Z,57.34
2019-04-04T08:41:52.660Z,57.34
2019-04-04T08:42:56.810Z,57.09
2019-04-04T08:44:00.661Z,57.04
2019-04-04T08:45:04.999Z,57.13
2019-04-04T08:46:08.913Z,57.26
2019-04-04T08:47:12.830Z,57.41
2019-04-04T08:48:17.218Z,57.55
2019-04-04T08:49:21.153Z,57.47
2019-04-04T08:50:25.377Z,57.43
2019-04-04T08:51:29.658Z,57.51
2019-04-04T08:52:33.942Z,57.58
2019-04-04T08:53:40.137Z,57.52
2019-04-04T08:54:44.294Z,57.28
2019-04-04T08:55:48.391Z,57.25
2019-04-04T08:56:52.380Z,57.31
2019-04-04T08:57:56.316Z,57.06
2019-04-04T08:59:00.251Z,57.06
2019-04-04T09:00:04.948Z,57.08
2019-04-04T09:01:09.140Z,57.27
2019-04-04T09:02:13.064Z,57.49
2019-04-04T09:03:17.530Z,57.62
2019-04-04T09:04:23.926Z,57.51
2019-04-04T09:05:27.040Z,57.59
2019-04-04T09:06:31.150Z,57.51
2019-04-04T09:07:35.692Z,57.66
2019-04-04T09:08:39.687Z,57.88
2019-04-04T09:09:43.695Z,57.91
2019-04-04T09:10:48.004Z,57.85
2019-04-04T09:11:52.199Z,57.63
2019-04-04T09:12:56.512Z,57.50
2019-04-04T09:14:00.432Z,57.63
2019-04-04T09:15:05.552Z,57.85
2019-04-04T09:16:09.733Z,57.95
2019-04-04T09:17:14.107Z,57.92
2019-04-04T09:18:18.907Z,57.93
2019-04-04T09:19:22.830Z,57.98
2019-04-04T09:20:26.671Z,57.98
2019-04-04T09:21:30.588Z,57.95
2019-04-04T09:22:34.997Z,57.95
2019-04-04T09:23:38.979Z,57.97
2019-04-04T09:24:43.024Z,57.92
2019-04-04T09:25:46.956Z,57.90
2019-04-04T09:26:51.287Z,57.98
2019-04-04T09:27:55.624Z,58.21
2019-04-04T09:28:59.902Z,58.29
2019-04-04T09:30:04.966Z,58.20
2019-04-04T09:31:08.959Z,58.28
2019-04-04T09:32:12.811Z,58.07
2019-04-04T09:33:17.087Z,57.79
2019-04-04T09:34:21.545Z,57.64
2019-04-04T09:35:25.538Z,57.39
2019-04-04T09:36:29.532Z,57.19
2019-04-04T09:37:33.736Z,57.40
2019-04-04T09:38:38.189Z,57.69
2019-04-04T09:39:42.734Z,57.97
2019-04-04T09:40:46.604Z,58.01
2019-04-04T09:41:50.884Z,58.16
2019-04-04T09:42:55.247Z,58.22
2019-04-04T09:43:59.100Z,58.10
2019-04-04T09:45:03.159Z,58.25
2019-04-04T09:46:07.399Z,58.42
2019-04-04T09:47:11.311Z,58.39
2019-04-04T09:48:15.302Z,58.43
2019-04-04T09:49:19.818Z,58.04
2019-04-04T09:50:23.732Z,58.12
2019-04-04T09:51:27.573Z,58.23
2019-04-04T09:52:31.487Z,58.34
2019-04-04T09:53:35.406Z,58.33
2019-04-04T09:54:39.926Z,57.97
2019-04-04T09:55:43.903Z,58.24
2019-04-04T09:56:47.891Z,58.43
2019-04-04T09:57:51.723Z,58.31
2019-04-04T09:58:55.811Z,58.23
2019-04-04T09:59:59.979Z,58.22
2019-04-04T10:01:06.611Z,58.31
2019-04-04T10:02:10.676Z,58.19
2019-04-04T10:03:14.913Z,58.34
2019-04-04T10:04:19.004Z,58.48
2019-04-04T10:05:22.920Z,58.24
2019-04-04T10:06:26.752Z,57.78
2019-04-04T10:07:30.848Z,57.67
2019-04-04T10:08:34.769Z,57.83
2019-04-04T10:09:38.939Z,57.97
2019-04-04T10:10:43.024Z,57.99
2019-04-04T10:11:46.937Z,58.07
2019-04-04T10:12:50.846Z,58.33
2019-04-04T10:13:54.700Z,58.56
2019-04-04T10:14:58.624Z,58.80
2019-04-04T10:16:02.630Z,58.71
2019-04-04T10:17:06.642Z,58.54
2019-04-04T10:18:10.871Z,58.43
2019-04-04T10:19:14.783Z,58.25
2019-04-04T10:20:18.786Z,58.50
2019-04-04T10:21:22.795Z,58.70
2019-04-04T10:22:26.779Z,58.58
2019-04-04T10:23:30.691Z,58.45
2019-04-04T10:24:34.804Z,58.09
2019-04-04T10:25:38.967Z,58.31
2019-04-04T10:26:43.237Z,58.01
2019-04-04T10:27:47.792Z,58.03
2019-04-04T10:28:51.970Z,58.41
2019-04-04T10:29:56.145Z,58.84
2019-04-04T10:31:00.060Z,59.13
2019-04-04T10:32:04.300Z,58.94
2019-04-04T10:33:08.889Z,58.95
2019-04-04T10:34:12.795Z,59.06
2019-04-04T10:35:16.796Z,59.17
2019-04-04T10:36:20.641Z,59.42
2019-04-04T10:37:24.622Z,59.54
2019-04-04T10:38:28.876Z,59.50
2019-04-04T10:39:33.157Z,59.52
2019-04-04T10:40:37.150Z,59.67
2019-04-04T10:41:41.517Z,59.61
2019-04-04T10:42:45.715Z,59.39
2019-04-04T10:43:50.217Z,59.46
2019-04-04T10:44:54.792Z,59.26
2019-04-04T10:45:58.779Z,59.25
2019-04-04T10:47:03.057Z,59.18
2019-04-04T10:48:07.043Z,59.26
2019-04-04T10:49:11.210Z,59.53
2019-04-04T10:50:16.262Z,59.19
2019-04-04T10:51:20.248Z,59.19
2019-04-04T10:52:24.450Z,59.10
2019-04-04T10:53:28.291Z,59.19
2019-04-04T10:54:32.347Z,59.12
2019-04-04T10:55:37.006Z,59.37
2019-04-04T10:56:41.190Z,59.57
2019-04-04T10:57:45.376Z,59.73
2019-04-04T10:58:49.292Z,59.70
2019-04-04T10:59:54.501Z,59.87
2019-04-04T11:00:59.118Z,59.88
2019-04-04T11:02:03.053Z,59.77
2019-04-04T11:03:07.244Z,59.74
2019-04-04T11:04:11.364Z,59.73
2019-04-04T11:05:15.873Z,59.76
2019-04-04T11:06:20.115Z,59.88
2019-04-04T11:07:24.032Z,59.92
2019-04-04T11:08:28.004Z,60.04
2019-04-04T11:09:41.993Z,60.02
2019-04-04T11:10:38.462Z,60.05
2019-04-04T11:11:42.434Z,60.05
2019-04-04T11:12:46.650Z,59.97
2019-04-04T11:13:50.573Z,60.00
2019-04-04T11:14:54.452Z,60.05
2019-04-04T11:15:58.639Z,60.01
2019-04-04T11:17:03.092Z,60.09
2019-04-04T11:18:07.350Z,60.13
2019-04-04T11:19:11.759Z,60.17
2019-04-04T11:20:16.110Z,60.08
2019-04-04T11:21:20.684Z,60.03
2019-04-04T11:22:25.249Z,60.18
2019-04-04T11:23:29.504Z,60.20
2019-04-04T11:24:33.353Z,60.22
2019-04-04T11:25:37.612Z,60.19
2019-04-04T11:26:41.959Z,60.30
2019-04-04T11:27:45.901Z,60.30
2019-04-04T11:28:50.024Z,60.21
2019-04-04T11:29:53.955Z,59.95
2019-04-04T11:30:58.706Z,59.90
2019-04-04T11:32:02.958Z,60.08
2019-04-04T11:33:07.208Z,59.97
2019-04-04T11:34:11.130Z,59.83
2019-04-04T11:35:15.676Z,59.72
2019-04-04T11:36:19.648Z,59.59
2019-04-04T11:37:23.673Z,59.37
2019-04-04T11:38:28.347Z,59.23
2019-04-04T11:39:32.264Z,58.84
2019-04-04T11:40:36.528Z,58.80
2019-04-04T11:41:41.008Z,59.27
2019-04-04T11:42:45.312Z,59.63
2019-04-04T11:43:49.242Z,59.83
2019-04-04T11:44:53.142Z,59.92
2019-04-04T11:45:57.075Z,60.07
2019-04-04T11:47:01.268Z,60.18
2019-04-04T11:48:05.266Z,60.13
2019-04-04T11:49:09.189Z,60.07
2019-04-04T11:50:14.870Z,60.12
2019-04-04T11:51:18.968Z,60.06
2019-04-04T11:52:22.899Z,60.06
2019-04-04T11:53:27.066Z,60.14
2019-04-04T11:54:30.940Z,60.08
2019-04-04T11:55:35.163Z,59.91
2019-04-04T11:56:39.092Z,60.09
2019-04-04T11:57:42.941Z,60.10
2019-04-04T11:58:47.166Z,60.14
2019-04-04T11:59:51.390Z,60.17
2019-04-04T12:00:56.249Z,60.22
2019-04-04T12:02:00.229Z,60.33
2019-04-04T12:03:04.166Z,60.14
2019-04-04T12:04:08.141Z,59.58
2019-04-04T12:05:12.129Z,59.45
2019-04-04T12:06:15.974Z,59.50
2019-04-04T12:07:19.825Z,59.52
2019-04-04T12:08:24.000Z,59.49
2019-04-04T12:09:27.838Z,59.28
2019-04-04T12:10:32.161Z,59.21
2019-04-04T12:11:36.098Z,59.11
2019-04-04T12:12:40.011Z,59.06
2019-04-04T12:13:43.939Z,58.98
2019-04-04T12:14:47.885Z,58.81
2019-04-04T12:15:52.169Z,58.61
2019-04-04T12:16:56.617Z,58.54
2019-04-04T12:18:01.214Z,58.00
2019-04-04T12:19:05.198Z,57.21
2019-04-04T12:20:10.260Z,57.46
2019-04-04T12:21:15.008Z,57.92
2019-04-04T12:22:18.852Z,57.73
2019-04-04T12:23:23.287Z,57.36
2019-04-04T12:24:27.798Z,57.44
2019-04-04T12:25:32.083Z,57.61
2019-04-04T12:26:36.072Z,57.83
2019-04-04T12:27:40.258Z,57.87
2019-04-04T12:28:44.246Z,57.84
2019-04-04T12:29:48.937Z,57.59
2019-04-04T12:30:53.154Z,57.27
2019-04-04T12:31:57.723Z,57.15
2019-04-04T12:33:01.733Z,57.15
2019-04-04T12:34:05.731Z,57.16
2019-04-04T12:35:09.818Z,57.07
2019-04-04T12:36:24.126Z,57.07
2019-04-04T12:37:19.553Z,56.90
2019-04-04T12:38:23.745Z,56.83
2019-04-04T12:39:27.657Z,56.77
2019-04-04T12:40:31.642Z,56.76
2019-04-04T12:41:35.586Z,56.84
2019-04-04T12:42:40.135Z,56.75
2019-04-04T12:43:44.293Z,56.57
2019-04-04T12:44:48.221Z,56.30
2019-04-04T12:45:52.820Z,55.80
2019-04-04T12:46:57.145Z,55.78
2019-04-04T12:48:01.365Z,55.88
2019-04-04T12:49:05.580Z,55.82
2019-04-04T12:50:09.809Z,55.89
2019-04-04T12:51:13.825Z,56.11
2019-04-04T12:52:18.051Z,56.43
2019-04-04T12:53:22.682Z,56.48
2019-04-04T12:54:26.725Z,56.71
2019-04-04T12:55:30.646Z,57.16
2019-04-04T12:56:35.433Z,57.34
2019-04-04T12:57:39.758Z,57.24
2019-04-04T12:58:44.102Z,57.39
2019-04-04T12:59:48.190Z,57.60
2019-04-04T13:00:52.206Z,57.43
2019-04-04T13:01:56.030Z,57.16
2019-04-04T13:02:59.858Z,56.96
2019-04-04T13:04:03.770Z,57.11
2019-04-04T13:05:08.664Z,57.27
2019-04-04T13:06:12.760Z,57.15
2019-04-04T13:07:16.742Z,56.69
2019-04-04T13:08:20.722Z,56.59
2019-04-04T13:09:24.709Z,56.51
2019-04-04T13:10:33.274Z,56.41
2019-04-04T13:11:34.372Z,56.78
2019-04-04T13:12:38.270Z,56.99
2019-04-04T13:13:42.338Z,56.94
2019-04-04T13:14:46.250Z,57.16
2019-04-04T13:15:50.149Z,57.09
2019-04-04T13:16:54.254Z,57.15
2019-04-04T13:17:58.171Z,57.59
2019-04-04T13:19:02.572Z,57.44
2019-04-04T13:20:08.393Z,57.48
2019-04-04T13:21:12.381Z,57.51
2019-04-04T13:22:16.353Z,57.61
2019-04-04T13:23:20.256Z,57.74
2019-04-04T13:24:24.085Z,57.31
2019-04-04T13:25:28.571Z,57.15
2019-04-04T13:26:32.730Z,57.21
2019-04-04T13:27:36.958Z,57.15
2019-04-04T13:28:41.358Z,57.27
2019-04-04T13:29:45.351Z,57.19
2019-04-04T13:30:49.823Z,57.04
2019-04-04T13:31:53.761Z,56.72
2019-04-04T13:32:57.987Z,56.40
2019-04-04T13:34:02.271Z,56.11
2019-04-04T13:35:06.424Z,55.67
2019-04-04T13:36:10.667Z,55.38
2019-04-04T13:37:14.787Z,54.89
2019-04-04T13:38:18.617Z,54.67
2019-04-04T13:39:22.794Z,54.92
2019-04-04T13:40:27.138Z,55.31
2019-04-04T13:41:31.341Z,55.67
2019-04-04T13:42:35.734Z,55.87
2019-04-04T13:43:39.574Z,55.85
2019-04-04T13:44:44.957Z,55.59
2019-04-04T13:45:49.478Z,55.49
2019-04-04T13:46:53.574Z,55.22
2019-04-04T13:47:57.891Z,55.14
2019-04-04T13:49:01.998Z,55.42
2019-04-04T13:50:07.129Z,55.82
2019-04-04T13:51:11.147Z,56.11